Terminal Aerodrome Forecast
Issued by NWS

Home | Current Version | Previous Version | Graphics & Text | Print | Product List | Glossary On
Versions: 1 2 3 4 5 6 7 8 9 10 11 12
000
FTUS45 KGGW 191142
TAFOLF
TAF
KOLF 191142Z 1912/2012 26006KT P6SM FEW190
     FM191500 28012KT P6SM SCT180
     FM191800 30017G25KT P6SM FEW180
     FM200000 34013KT P6SM FEW170
     FM200200 01009KT P6SM FEW190=

USA.gov is the U.S. government's official web portal to all federal, state and local government web resources and services.